sensor_id;sensor_type;location;lat;lon;timestamp;pressure;altitude;pressure_sealevel;temperature;humidity
83762;BME280;73752;49.594;8.734;2024-03-08T00:01:01;99577.44;;;3.85;65.03
83762;BME280;73752;49.594;8.734;2024-03-08T00:04:01;99575.81;;;3.84;64.84
83762;BME280;73752;49.594;8.734;2024-03-08T00:07:02;99571.94;;;3.80;65.13
83762;BME280;73752;49.594;8.734;2024-03-08T00:10:04;99568.69;;;3.78;65.32
83762;BME280;73752;49.594;8.734;2024-03-08T00:13:04;99568.25;;;3.75;65.27
83762;BME280;73752;49.594;8.734;2024-03-08T00:16:05;99561.00;;;3.62;65.22
83762;BME280;73752;49.594;8.734;2024-03-08T00:19:05;99566.38;;;3.46;66.01
83762;BME280;73752;49.594;8.734;2024-03-08T00:22:05;99559.97;;;3.48;66.36
83762;BME280;73752;49.594;8.734;2024-03-08T00:25:07;99563.63;;;3.62;65.35
83762;BME280;73752;49.594;8.734;2024-03-08T00:28:11;99557.88;;;3.67;65.30
83762;BME280;73752;49.594;8.734;2024-03-08T00:31:15;99562.63;;;3.63;65.16
83762;BME280;73752;49.594;8.734;2024-03-08T00:34:18;99555.94;;;3.60;65.03
83762;BME280;73752;49.594;8.734;2024-03-08T00:37:18;99552.78;;;3.50;65.65
83762;BME280;73752;49.594;8.734;2024-03-08T00:40:19;99546.41;;;3.53;65.97
83762;BME280;73752;49.594;8.734;2024-03-08T00:43:19;99539.75;;;3.50;65.63
83762;BME280;73752;49.594;8.734;2024-03-08T00:46:19;99538.72;;;3.37;66.38
83762;BME280;73752;49.594;8.734;2024-03-08T00:49:20;99536.09;;;3.37;66.38
83762;BME280;73752;49.594;8.734;2024-03-08T00:52:20;99533.88;;;3.26;66.83
83762;BME280;73752;49.594;8.734;2024-03-08T00:55:21;99526.34;;;3.08;67.43
83762;BME280;73752;49.594;8.734;2024-03-08T00:58:21;99529.72;;;2.94;68.02
83762;BME280;73752;49.594;8.734;2024-03-08T01:01:23;99525.00;;;2.89;68.22
83762;BME280;73752;49.594;8.734;2024-03-08T01:04:24;99519.69;;;2.83;69.39
83762;BME280;73752;49.594;8.734;2024-03-08T01:07:26;99519.13;;;2.64;69.56
83762;BME280;73752;49.594;8.734;2024-03-08T01:10:26;99512.69;;;2.83;68.33
83762;BME280;73752;49.594;8.734;2024-03-08T01:13:27;99512.94;;;2.88;67.78
83762;BME280;73752;49.594;8.734;2024-03-08T01:16:27;99501.31;;;2.76;68.76
83762;BME280;73752;49.594;8.734;2024-03-08T01:19:27;99509.34;;;2.66;69.21
83762;BME280;73752;49.594;8.734;2024-03-08T01:22:28;99502.13;;;2.77;68.50
83762;BME280;73752;49.594;8.734;2024-03-08T01:25:29;99494.69;;;2.88;67.99
83762;BME280;73752;49.594;8.734;2024-03-08T01:28:32;99491.53;;;2.78;68.74
83762;BME280;73752;49.594;8.734;2024-03-08T01:31:34;99487.84;;;2.64;69.13
83762;BME280;73752;49.594;8.734;2024-03-08T01:34:36;99491.06;;;2.75;68.55
83762;BME280;73752;49.594;8.734;2024-03-08T01:37:37;99481.16;;;2.70;68.44
83762;BME280;73752;49.594;8.734;2024-03-08T01:40:38;99488.38;;;2.60;68.62
83762;BME280;73752;49.594;8.734;2024-03-08T01:43:40;99481.53;;;2.59;69.29
83762;BME280;73752;49.594;8.734;2024-03-08T01:46:41;99473.38;;;2.85;67.66
83762;BME280;73752;49.594;8.734;2024-03-08T01:49:41;99471.94;;;2.82;67.65
83762;BME280;73752;49.594;8.734;2024-03-08T01:52:41;99466.19;;;2.64;68.73
83762;BME280;73752;49.594;8.734;2024-03-08T01:55:42;99474.31;;;2.69;68.55
83762;BME280;73752;49.594;8.734;2024-03-08T01:58:44;99461.28;;;2.69;68.37
83762;BME280;73752;49.594;8.734;2024-03-08T02:01:44;99464.41;;;2.64;68.59
83762;BME280;73752;49.594;8.734;2024-03-08T02:04:44;99459.88;;;2.58;68.54
83762;BME280;73752;49.594;8.734;2024-03-08T02:07:45;99457.19;;;2.66;67.82
83762;BME280;73752;49.594;8.734;2024-03-08T02:10:45;99455.00;;;2.55;68.59
83762;BME280;73752;49.594;8.734;2024-03-08T02:13:45;99452.25;;;2.49;68.92
83762;BME280;73752;49.594;8.734;2024-03-08T02:16:46;99452.00;;;2.36;69.22
83762;BME280;73752;49.594;8.734;2024-03-08T02:19:46;99452.22;;;2.26;69.26
83762;BME280;73752;49.594;8.734;2024-03-08T02:22:46;99448.03;;;2.17;69.86
83762;BME280;73752;49.594;8.734;2024-03-08T02:25:47;99451.13;;;2.20;69.88
83762;BME280;73752;49.594;8.734;2024-03-08T02:28:48;99450.25;;;2.28;69.29
83762;BME280;73752;49.594;8.734;2024-03-08T02:31:51;99440.72;;;2.20;69.60
83762;BME280;73752;49.594;8.734;2024-03-08T02:34:56;99442.69;;;2.10;69.96
83762;BME280;73752;49.594;8.734;2024-03-08T02:37:56;99437.50;;;2.10;69.70
83762;BME280;73752;49.594;8.734;2024-03-08T02:40:56;99438.63;;;2.08;69.90
83762;BME280;73752;49.594;8.734;2024-03-08T02:43:57;99436.38;;;2.05;69.99
83762;BME280;73752;49.594;8.734;2024-03-08T02:46:57;99433.31;;;2.01;70.22
83762;BME280;73752;49.594;8.734;2024-03-08T02:49:57;99429.72;;;1.94;70.24
83762;BME280;73752;49.594;8.734;2024-03-08T02:52:58;99428.13;;;1.85;70.64
83762;BME280;73752;49.594;8.734;2024-03-08T02:55:58;99425.22;;;1.88;70.41
83762;BME280;73752;49.594;8.734;2024-03-08T02:58:59;99419.91;;;1.73;71.01
83762;BME280;73752;49.594;8.734;2024-03-08T03:01:59;99413.69;;;1.83;71.03
83762;BME280;73752;49.594;8.734;2024-03-08T03:04:59;99414.34;;;1.76;70.97
83762;BME280;73752;49.594;8.734;2024-03-08T03:08:05;99411.44;;;2.10;69.92
83762;BME280;73752;49.594;8.734;2024-03-08T03:11:08;99417.22;;;1.90;70.36
83762;BME280;73752;49.594;8.734;2024-03-08T03:14:09;99408.91;;;1.94;70.43
83762;BME280;73752;49.594;8.734;2024-03-08T03:17:09;99405.47;;;2.02;69.84
83762;BME280;73752;49.594;8.734;2024-03-08T03:20:10;99404.00;;;1.99;70.25
83762;BME280;73752;49.594;8.734;2024-03-08T03:23:13;99399.50;;;1.93;70.19
83762;BME280;73752;49.594;8.734;2024-03-08T03:26:20;99387.59;;;1.91;70.60
83762;BME280;73752;49.594;8.734;2024-03-08T03:29:22;99395.47;;;1.83;70.66
83762;BME280;73752;49.594;8.734;2024-03-08T03:32:22;99395.19;;;1.69;71.43
83762;BME280;73752;49.594;8.734;2024-03-08T03:35:23;99384.91;;;1.76;70.79
83762;BME280;73752;49.594;8.734;2024-03-08T03:38:24;99384.50;;;1.56;71.85
83762;BME280;73752;49.594;8.734;2024-03-08T03:41:26;99389.72;;;1.40;72.15
83762;BME280;73752;49.594;8.734;2024-03-08T03:44:26;99381.91;;;1.40;72.34
83762;BME280;73752;49.594;8.734;2024-03-08T03:47:26;99382.22;;;1.61;71.65
83762;BME280;73752;49.594;8.734;2024-03-08T03:50:27;99377.84;;;1.46;72.40
83762;BME280;73752;49.594;8.734;2024-03-08T03:53:27;99382.06;;;1.55;71.88
83762;BME280;73752;49.594;8.734;2024-03-08T03:56:27;99378.66;;;1.46;72.13
83762;BME280;73752;49.594;8.734;2024-03-08T03:59:28;99376.72;;;1.48;72.51
83762;BME280;73752;49.594;8.734;2024-03-08T04:02:28;99370.72;;;1.31;72.73
83762;BME280;73752;49.594;8.734;2024-03-08T04:05:29;99373.00;;;1.26;73.23
83762;BME280;73752;49.594;8.734;2024-03-08T04:08:29;99374.66;;;1.27;73.40
83762;BME280;73752;49.594;8.734;2024-03-08T04:11:29;99370.72;;;1.31;73.35
83762;BME280;73752;49.594;8.734;2024-03-08T04:14:30;99370.66;;;1.56;72.72
83762;BME280;73752;49.594;8.734;2024-03-08T04:17:30;99375.44;;;1.83;72.05
83762;BME280;73752;49.594;8.734;2024-03-08T04:20:31;99367.03;;;1.73;71.89
83762;BME280;73752;49.594;8.734;2024-03-08T04:23:31;99370.16;;;1.99;71.27
83762;BME280;73752;49.594;8.734;2024-03-08T04:26:31;99360.94;;;2.19;70.72
83762;BME280;73752;49.594;8.734;2024-03-08T04:29:32;99363.72;;;2.41;69.47
83762;BME280;73752;49.594;8.734;2024-03-08T04:32:33;99353.81;;;2.36;69.85
83762;BME280;73752;49.594;8.734;2024-03-08T04:35:33;99356.19;;;2.46;69.35
83762;BME280;73752;49.594;8.734;2024-03-08T04:38:34;99356.78;;;2.56;68.75
83762;BME280;73752;49.594;8.734;2024-03-08T04:41:34;99357.81;;;2.47;69.38
83762;BME280;73752;49.594;8.734;2024-03-08T04:44:35;99345.59;;;2.24;69.89
83762;BME280;73752;49.594;8.734;2024-03-08T04:47:35;99347.84;;;2.28;69.60
83762;BME280;73752;49.594;8.734;2024-03-08T04:50:37;99346.56;;;2.01;70.27
83762;BME280;73752;49.594;8.734;2024-03-08T04:53:38;99337.25;;;1.75;71.19
83762;BME280;73752;49.594;8.734;2024-03-08T04:56:38;99343.91;;;1.78;71.32
83762;BME280;73752;49.594;8.734;2024-03-08T04:59:39;99338.28;;;1.66;71.50
83762;BME280;73752;49.594;8.734;2024-03-08T05:02:40;99340.56;;;1.53;71.78
83762;BME280;73752;49.594;8.734;2024-03-08T05:05:41;99343.19;;;1.53;71.83
83762;BME280;73752;49.594;8.734;2024-03-08T05:08:41;99333.78;;;1.52;71.88
83762;BME280;73752;49.594;8.734;2024-03-08T05:11:42;99332.03;;;1.37;72.53
83762;BME280;73752;49.594;8.734;2024-03-08T05:14:45;99332.50;;;1.40;72.51
83762;BME280;73752;49.594;8.734;2024-03-08T05:17:46;99329.31;;;1.30;73.13
83762;BME280;73752;49.594;8.734;2024-03-08T05:20:47;99329.44;;;1.37;72.96
83762;BME280;73752;49.594;8.734;2024-03-08T05:23:47;99321.28;;;1.48;72.23
83762;BME280;73752;49.594;8.734;2024-03-08T05:26:47;99332.06;;;1.28;72.56
83762;BME280;73752;49.594;8.734;2024-03-08T05:29:48;99321.50;;;1.30;73.12
83762;BME280;73752;49.594;8.734;2024-03-08T05:32:48;99322.81;;;1.65;71.76
83762;BME280;73752;49.594;8.734;2024-03-08T05:35:48;99319.28;;;1.50;72.56
83762;BME280;73752;49.594;8.734;2024-03-08T05:38:48;99319.19;;;1.43;73.18
83762;BME280;73752;49.594;8.734;2024-03-08T05:41:50;99316.84;;;1.56;72.69
83762;BME280;73752;49.594;8.734;2024-03-08T05:44:51;99317.66;;;1.49;72.58
83762;BME280;73752;49.594;8.734;2024-03-08T05:47:52;99317.34;;;1.52;72.35
83762;BME280;73752;49.594;8.734;2024-03-08T05:50:52;99314.63;;;1.37;73.23
83762;BME280;73752;49.594;8.734;2024-03-08T05:53:53;99316.09;;;1.31;73.29
83762;BME280;73752;49.594;8.734;2024-03-08T05:56:53;99310.34;;;1.52;72.76
83762;BME280;73752;49.594;8.734;2024-03-08T05:59:54;99300.81;;;1.37;73.16
83762;BME280;73752;49.594;8.734;2024-03-08T06:02:54;99306.06;;;1.28;73.56
83762;BME280;73752;49.594;8.734;2024-03-08T06:05:55;99312.91;;;1.13;74.49
83762;BME280;73752;49.594;8.734;2024-03-08T06:08:56;99309.94;;;1.32;73.92
83762;BME280;73752;49.594;8.734;2024-03-08T06:11:58;99306.47;;;1.40;72.83
83762;BME280;73752;49.594;8.734;2024-03-08T06:14:59;99310.34;;;1.52;72.81
83762;BME280;73752;49.594;8.734;2024-03-08T06:17:59;99307.03;;;1.66;72.38
83762;BME280;73752;49.594;8.734;2024-03-08T06:21:00;99301.53;;;1.61;72.52
83762;BME280;73752;49.594;8.734;2024-03-08T06:24:00;99309.81;;;1.65;72.66
83762;BME280;73752;49.594;8.734;2024-03-08T06:27:01;99310.81;;;1.56;72.64
83762;BME280;73752;49.594;8.734;2024-03-08T06:30:01;99309.81;;;1.65;72.58
83762;BME280;73752;49.594;8.734;2024-03-08T06:33:02;99294.88;;;1.59;72.86
83762;BME280;73752;49.594;8.734;2024-03-08T06:36:03;99288.81;;;1.97;71.42
83762;BME280;73752;49.594;8.734;2024-03-08T06:39:03;99302.97;;;1.95;71.19
83762;BME280;73752;49.594;8.734;2024-03-08T06:42:09;99300.50;;;2.01;71.09
83762;BME280;73752;49.594;8.734;2024-03-08T06:45:10;99298.66;;;2.10;70.75
83762;BME280;73752;49.594;8.734;2024-03-08T06:48:12;99298.00;;;2.08;70.87
83762;BME280;73752;49.594;8.734;2024-03-08T06:51:12;99289.56;;;2.29;70.06
83762;BME280;73752;49.594;8.734;2024-03-08T06:54:14;99294.69;;;2.59;69.27
83762;BME280;73752;49.594;8.734;2024-03-08T06:57:14;99287.91;;;3.02;67.60
83762;BME280;73752;49.594;8.734;2024-03-08T07:00:16;99286.28;;;3.31;66.55
83762;BME280;73752;49.594;8.734;2024-03-08T07:03:18;99292.38;;;4.24;63.25
83762;BME280;73752;49.594;8.734;2024-03-08T07:06:19;99286.72;;;4.70;61.02
83762;BME280;73752;49.594;8.734;2024-03-08T07:09:20;99284.25;;;4.89;60.27
83762;BME280;73752;49.594;8.734;2024-03-08T07:12:20;99285.34;;;5.02;59.81
83762;BME280;73752;49.594;8.734;2024-03-08T07:15:20;99283.09;;;5.80;57.87
83762;BME280;73752;49.594;8.734;2024-03-08T07:18:21;99287.84;;;5.16;59.30
83762;BME280;73752;49.594;8.734;2024-03-08T07:21:22;99279.78;;;5.52;58.84
83762;BME280;73752;49.594;8.734;2024-03-08T07:24:22;99291.94;;;4.70;60.00
83762;BME280;73752;49.594;8.734;2024-03-08T07:27:41;99276.41;;;4.62;60.96
83762;BME280;73752;49.594;8.734;2024-03-08T07:30:41;99271.75;;;4.57;61.19
83762;BME280;73752;49.594;8.734;2024-03-08T07:33:44;99276.88;;;4.44;61.86
83762;BME280;73752;49.594;8.734;2024-03-08T07:36:45;99275.25;;;4.43;62.10
83762;BME280;73752;49.594;8.734;2024-03-08T07:39:45;99271.88;;;4.49;62.15
83762;BME280;73752;49.594;8.734;2024-03-08T07:42:45;99276.34;;;4.55;61.92
83762;BME280;73752;49.594;8.734;2024-03-08T07:45:45;99265.88;;;4.27;62.27
83762;BME280;73752;49.594;8.734;2024-03-08T07:48:46;99265.81;;;4.21;63.00
83762;BME280;73752;49.594;8.734;2024-03-08T07:51:46;99268.38;;;4.42;61.81
83762;BME280;73752;49.594;8.734;2024-03-08T07:54:46;99262.25;;;4.49;62.01
83762;BME280;73752;49.594;8.734;2024-03-08T07:57:47;99257.78;;;4.71;61.81
83762;BME280;73752;49.594;8.734;2024-03-08T08:00:47;99254.19;;;4.79;61.93
83762;BME280;73752;49.594;8.734;2024-03-08T08:03:49;99255.19;;;4.78;61.46
83762;BME280;73752;49.594;8.734;2024-03-08T08:06:50;99238.41;;;4.93;60.89
83762;BME280;73752;49.594;8.734;2024-03-08T08:09:52;99244.69;;;5.06;60.91
83762;BME280;73752;49.594;8.734;2024-03-08T08:12:52;99232.47;;;5.13;59.83
83762;BME280;73752;49.594;8.734;2024-03-08T08:15:53;99232.69;;;4.83;60.88
83762;BME280;73752;49.594;8.734;2024-03-08T08:18:53;99239.16;;;4.87;60.16
83762;BME280;73752;49.594;8.734;2024-03-08T08:21:54;99235.50;;;4.82;60.17
83762;BME280;73752;49.594;8.734;2024-03-08T08:24:55;99218.06;;;4.95;59.34
83762;BME280;73752;49.594;8.734;2024-03-08T08:27:56;99204.31;;;4.80;60.06
83762;BME280;73752;49.594;8.734;2024-03-08T08:30:56;99220.31;;;4.99;60.03
83762;BME280;73752;49.594;8.734;2024-03-08T08:33:56;99219.56;;;5.11;58.84
83762;BME280;73752;49.594;8.734;2024-03-08T08:37:00;99200.22;;;5.06;59.06
83762;BME280;73752;49.594;8.734;2024-03-08T08:40:00;99205.38;;;5.33;59.26
83762;BME280;73752;49.594;8.734;2024-03-08T08:43:05;99202.47;;;5.82;57.33
83762;BME280;73752;49.594;8.734;2024-03-08T08:46:05;99200.06;;;5.74;57.60
83762;BME280;73752;49.594;8.734;2024-03-08T08:49:06;99205.06;;;5.69;56.88
83762;BME280;73752;49.594;8.734;2024-03-08T08:52:10;99207.50;;;5.71;57.35
83762;BME280;73752;49.594;8.734;2024-03-08T08:55:11;99207.88;;;5.61;57.55
83762;BME280;73752;49.594;8.734;2024-03-08T08:58:14;99209.13;;;5.78;58.07
83762;BME280;73752;49.594;8.734;2024-03-08T09:01:14;99197.91;;;6.17;55.55
83762;BME280;73752;49.594;8.734;2024-03-08T09:04:15;99193.88;;;6.28;55.27
83762;BME280;73752;49.594;8.734;2024-03-08T09:07:15;99192.69;;;6.44;54.91
83762;BME280;73752;49.594;8.734;2024-03-08T09:10:18;99191.03;;;6.49;54.51
83762;BME280;73752;49.594;8.734;2024-03-08T09:13:19;99191.03;;;6.56;54.16
83762;BME280;73752;49.594;8.734;2024-03-08T09:16:19;99197.50;;;6.40;54.53
83762;BME280;73752;49.594;8.734;2024-03-08T09:19:19;99182.59;;;6.34;54.76
83762;BME280;73752;49.594;8.734;2024-03-08T09:22:19;99182.13;;;6.77;54.37
83762;BME280;73752;49.594;8.734;2024-03-08T09:25:20;99167.25;;;6.57;54.47
83762;BME280;73752;49.594;8.734;2024-03-08T09:28:20;99170.03;;;6.62;54.79
83762;BME280;73752;49.594;8.734;2024-03-08T09:31:21;99164.44;;;6.52;54.78
83762;BME280;73752;49.594;8.734;2024-03-08T09:34:22;99167.25;;;6.44;54.35
83762;BME280;73752;49.594;8.734;2024-03-08T09:37:22;99159.75;;;6.61;55.25
83762;BME280;73752;49.594;8.734;2024-03-08T09:40:23;99155.09;;;6.69;54.83
83762;BME280;73752;49.594;8.734;2024-03-08T09:43:24;99144.41;;;6.64;54.83
83762;BME280;73752;49.594;8.734;2024-03-08T09:46:24;99139.47;;;7.01;53.24
83762;BME280;73752;49.594;8.734;2024-03-08T09:49:27;99139.72;;;7.31;51.73
83762;BME280;73752;49.594;8.734;2024-03-08T09:52:27;99129.78;;;7.39;53.20
83762;BME280;73752;49.594;8.734;2024-03-08T09:55:31;99138.31;;;7.28;52.56
83762;BME280;73752;49.594;8.734;2024-03-08T09:58:34;99133.88;;;7.29;53.05
83762;BME280;73752;49.594;8.734;2024-03-08T10:01:34;99135.19;;;7.06;53.30
83762;BME280;73752;49.594;8.734;2024-03-08T10:04:34;99132.28;;;7.21;53.19
83762;BME280;73752;49.594;8.734;2024-03-08T10:07:35;99127.78;;;7.35;53.38
83762;BME280;73752;49.594;8.734;2024-03-08T10:10:36;99121.59;;;7.54;52.30
83762;BME280;73752;49.594;8.734;2024-03-08T10:13:37;99116.94;;;7.87;52.58
83762;BME280;73752;49.594;8.734;2024-03-08T10:16:38;99116.56;;;7.52;52.41
83762;BME280;73752;49.594;8.734;2024-03-08T10:19:49;99106.47;;;7.49;52.76
83762;BME280;73752;49.594;8.734;2024-03-08T10:22:50;99123.41;;;7.53;51.48
83762;BME280;73752;49.594;8.734;2024-03-08T10:25:51;99108.13;;;7.44;52.77
83762;BME280;73752;49.594;8.734;2024-03-08T10:28:52;99112.56;;;7.75;52.08
83762;BME280;73752;49.594;8.734;2024-03-08T10:31:53;99104.03;;;7.79;51.46
83762;BME280;73752;49.594;8.734;2024-03-08T10:34:53;99103.16;;;7.92;51.92
83762;BME280;73752;49.594;8.734;2024-03-08T10:37:56;99103.59;;;8.07;51.45
83762;BME280;73752;49.594;8.734;2024-03-08T10:41:01;99101.75;;;7.65;52.56
83762;BME280;73752;49.594;8.734;2024-03-08T10:50:19;99086.09;;;7.45;53.77
83762;BME280;73752;49.594;8.734;2024-03-08T10:53:23;99090.72;;;7.49;53.09
83762;BME280;73752;49.594;8.734;2024-03-08T10:56:24;99090.25;;;7.59;53.41
83762;BME280;73752;49.594;8.734;2024-03-08T10:59:29;99086.63;;;7.85;52.83
83762;BME280;73752;49.594;8.734;2024-03-08T11:02:30;99080.41;;;8.22;51.74
83762;BME280;73752;49.594;8.734;2024-03-08T11:05:32;99081.50;;;8.58;51.24
83762;BME280;73752;49.594;8.734;2024-03-08T11:08:38;99077.75;;;8.47;50.67
83762;BME280;73752;49.594;8.734;2024-03-08T11:11:39;99076.53;;;8.68;50.36
83762;BME280;73752;49.594;8.734;2024-03-08T11:14:45;99070.47;;;8.97;49.76
83762;BME280;73752;49.594;8.734;2024-03-08T11:17:49;99064.47;;;9.08;50.49
83762;BME280;73752;49.594;8.734;2024-03-08T11:20:50;99058.97;;;8.80;48.59
83762;BME280;73752;49.594;8.734;2024-03-08T11:24:14;99055.38;;;8.38;51.11
83762;BME280;73752;49.594;8.734;2024-03-08T11:27:16;99053.31;;;8.46;50.41
83762;BME280;73752;49.594;8.734;2024-03-08T11:30:21;99053.31;;;8.46;50.72
83762;BME280;73752;49.594;8.734;2024-03-08T11:33:27;99048.75;;;8.72;50.68
83762;BME280;73752;49.594;8.734;2024-03-08T11:36:27;99035.59;;;9.02;49.29
83762;BME280;73752;49.594;8.734;2024-03-08T11:39:27;99032.91;;;8.90;49.30
83762;BME280;73752;49.594;8.734;2024-03-08T11:42:28;99035.16;;;9.05;49.94
83762;BME280;73752;49.594;8.734;2024-03-08T11:45:29;99022.09;;;9.10;49.41
83762;BME280;73752;49.594;8.734;2024-03-08T11:48:29;99019.25;;;9.11;49.37
83762;BME280;73752;49.594;8.734;2024-03-08T11:51:31;99021.97;;;9.46;48.52
83762;BME280;73752;49.594;8.734;2024-03-08T11:54:32;99007.97;;;9.34;48.34
83762;BME280;73752;49.594;8.734;2024-03-08T11:57:34;99009.94;;;9.38;47.90
83762;BME280;73752;49.594;8.734;2024-03-08T12:00:34;99013.75;;;8.83;48.99
83762;BME280;73752;49.594;8.734;2024-03-08T12:03:35;99003.25;;;9.24;48.60
83762;BME280;73752;49.594;8.734;2024-03-08T12:06:37;98987.75;;;9.58;48.84
83762;BME280;73752;49.594;8.734;2024-03-08T12:09:42;98988.31;;;9.71;46.95
83762;BME280;73752;49.594;8.734;2024-03-08T12:12:48;98982.69;;;9.91;46.49
83762;BME280;73752;49.594;8.734;2024-03-08T12:15:50;98969.59;;;10.19;46.45
83762;BME280;73752;49.594;8.734;2024-03-08T12:18:51;98959.41;;;10.11;46.75
83762;BME280;73752;49.594;8.734;2024-03-08T12:21:54;98961.06;;;10.41;46.30
83762;BME280;73752;49.594;8.734;2024-03-08T12:25:05;98952.69;;;10.44;46.01
83762;BME280;73752;49.594;8.734;2024-03-08T12:28:10;98951.31;;;10.41;45.17
83762;BME280;73752;49.594;8.734;2024-03-08T12:31:12;98949.66;;;10.00;45.87
83762;BME280;73752;49.594;8.734;2024-03-08T12:34:12;98939.53;;;10.09;46.25
83762;BME280;73752;49.594;8.734;2024-03-08T12:37:14;98939.56;;;9.97;47.23
83762;BME280;73752;49.594;8.734;2024-03-08T12:40:14;98940.66;;;10.36;45.91
83762;BME280;73752;49.594;8.734;2024-03-08T12:43:16;98926.03;;;10.57;45.61
83762;BME280;73752;49.594;8.734;2024-03-08T12:46:19;98930.78;;;10.71;44.45
83762;BME280;73752;49.594;8.734;2024-03-08T12:49:26;98919.53;;;10.48;45.51
83762;BME280;73752;49.594;8.734;2024-03-08T12:52:27;98911.72;;;10.69;46.95
83762;BME280;73752;49.594;8.734;2024-03-08T12:55:30;98907.88;;;10.77;45.09
83762;BME280;73752;49.594;8.734;2024-03-08T12:58:32;98905.16;;;10.72;44.47
83762;BME280;73752;49.594;8.734;2024-03-08T13:01:32;98895.94;;;11.03;44.94
83762;BME280;73752;49.594;8.734;2024-03-08T13:04:33;98893.97;;;10.65;45.88
83762;BME280;73752;49.594;8.734;2024-03-08T13:07:33;98884.00;;;10.84;45.43
83762;BME280;73752;49.594;8.734;2024-03-08T13:10:33;98874.06;;;11.24;43.99
83762;BME280;73752;49.594;8.734;2024-03-08T13:13:34;98877.03;;;11.28;44.11
83762;BME280;73752;49.594;8.734;2024-03-08T13:16:36;98871.91;;;11.04;43.77
83762;BME280;73752;49.594;8.734;2024-03-08T13:19:37;98869.66;;;11.30;44.24
83762;BME280;73752;49.594;8.734;2024-03-08T13:22:38;98861.28;;;11.16;44.60
83762;BME280;73752;49.594;8.734;2024-03-08T13:25:38;98851.22;;;11.35;43.68
83762;BME280;73752;49.594;8.734;2024-03-08T13:28:38;98850.81;;;11.43;43.17
83762;BME280;73752;49.594;8.734;2024-03-08T13:31:39;98844.72;;;11.42;43.18
83762;BME280;73752;49.594;8.734;2024-03-08T13:34:43;98848.75;;;11.28;43.31
83762;BME280;73752;49.594;8.734;2024-03-08T13:37:45;98847.28;;;11.37;44.02
83762;BME280;73752;49.594;8.734;2024-03-08T13:40:45;98833.00;;;11.16;43.58
83762;BME280;73752;49.594;8.734;2024-03-08T13:43:47;98835.03;;;11.31;43.37
83762;BME280;73752;49.594;8.734;2024-03-08T13:46:50;98825.59;;;11.35;43.33
83762;BME280;73752;49.594;8.734;2024-03-08T13:49:51;98821.75;;;11.43;43.27
83762;BME280;73752;49.594;8.734;2024-03-08T13:52:51;98811.34;;;11.58;42.87
83762;BME280;73752;49.594;8.734;2024-03-08T13:55:53;98807.63;;;11.76;42.79
83762;BME280;73752;49.594;8.734;2024-03-08T13:58:53;98805.53;;;11.56;43.58
83762;BME280;73752;49.594;8.734;2024-03-08T14:01:56;98789.69;;;11.78;42.63
83762;BME280;73752;49.594;8.734;2024-03-08T14:04:58;98780.84;;;11.94;42.72
83762;BME280;73752;49.594;8.734;2024-03-08T14:08:02;98782.84;;;11.82;42.77
83762;BME280;73752;49.594;8.734;2024-03-08T14:11:07;98778.81;;;11.36;43.92
83762;BME280;73752;49.594;8.734;2024-03-08T14:14:13;98779.31;;;11.33;43.80
83762;BME280;73752;49.594;8.734;2024-03-08T14:17:13;98768.69;;;11.49;43.16
83762;BME280;73752;49.594;8.734;2024-03-08T14:20:17;98770.41;;;11.60;42.47
83762;BME280;73752;49.594;8.734;2024-03-08T14:23:18;98763.59;;;11.21;43.00
83762;BME280;73752;49.594;8.734;2024-03-08T14:26:18;98759.44;;;11.30;42.82
83762;BME280;73752;49.594;8.734;2024-03-08T14:29:21;98750.91;;;11.45;43.82
83762;BME280;73752;49.594;8.734;2024-03-08T14:32:21;98749.94;;;11.29;43.34
83762;BME280;73752;49.594;8.734;2024-03-08T14:35:23;98752.06;;;11.10;43.40
83762;BME280;73752;49.594;8.734;2024-03-08T14:38:24;98738.00;;;11.48;42.92
83762;BME280;73752;49.594;8.734;2024-03-08T14:41:27;98738.50;;;11.67;43.55
83762;BME280;73752;49.594;8.734;2024-03-08T14:44:27;98731.47;;;11.99;43.48
83762;BME280;73752;49.594;8.734;2024-03-08T14:47:29;98730.94;;;12.29;41.34
83762;BME280;73752;49.594;8.734;2024-03-08T14:50:29;98736.28;;;12.07;43.04
83762;BME280;73752;49.594;8.734;2024-03-08T14:53:33;98721.09;;;12.25;41.23
83762;BME280;73752;49.594;8.734;2024-03-08T14:56:33;98720.09;;;12.31;41.41
83762;BME280;73752;49.594;8.734;2024-03-08T14:59:35;98722.47;;;12.27;41.84
83762;BME280;73752;49.594;8.734;2024-03-08T15:02:39;98721.69;;;12.00;41.30
83762;BME280;73752;49.594;8.734;2024-03-08T15:05:39;98716.44;;;11.78;42.02
83762;BME280;73752;49.594;8.734;2024-03-08T15:08:42;98712.69;;;11.74;42.20
83762;BME280;73752;49.594;8.734;2024-03-08T15:11:46;98715.41;;;11.79;42.24
83762;BME280;73752;49.594;8.734;2024-03-08T15:14:46;98714.44;;;11.90;41.83
83762;BME280;73752;49.594;8.734;2024-03-08T15:17:47;98698.09;;;11.98;41.89
83762;BME280;73752;49.594;8.734;2024-03-08T15:20:47;98699.88;;;11.88;41.34
83762;BME280;73752;49.594;8.734;2024-03-08T15:23:48;98693.84;;;11.92;42.17
83762;BME280;73752;49.594;8.734;2024-03-08T15:26:52;98688.78;;;11.91;42.27
83762;BME280;73752;49.594;8.734;2024-03-08T15:29:55;98682.44;;;11.65;43.13
83762;BME280;73752;49.594;8.734;2024-03-08T15:32:55;98691.22;;;11.71;42.79
83762;BME280;73752;49.594;8.734;2024-03-08T15:35:57;98683.16;;;11.82;41.48
83762;BME280;73752;49.594;8.734;2024-03-08T15:39:07;98678.56;;;11.73;42.09
83762;BME280;73752;49.594;8.734;2024-03-08T15:42:10;98680.81;;;11.64;40.90
83762;BME280;73752;49.594;8.734;2024-03-08T15:45:11;98670.69;;;11.78;41.41
83762;BME280;73752;49.594;8.734;2024-03-08T15:48:12;98667.53;;;11.81;41.82
83762;BME280;73752;49.594;8.734;2024-03-08T15:51:12;98668.44;;;11.91;41.46
83762;BME280;73752;49.594;8.734;2024-03-08T15:54:13;98652.13;;;11.73;41.96
83762;BME280;73752;49.594;8.734;2024-03-08T15:57:13;98656.28;;;11.69;42.13
83762;BME280;73752;49.594;8.734;2024-03-08T16:00:17;98657.69;;;11.76;42.14
83762;BME280;73752;49.594;8.734;2024-03-08T16:03:33;98659.88;;;11.79;41.81
83762;BME280;73752;49.594;8.734;2024-03-08T16:06:33;98651.22;;;11.67;41.41
83762;BME280;73752;49.594;8.734;2024-03-08T16:09:36;98650.34;;;11.78;41.32
83762;BME280;73752;49.594;8.734;2024-03-08T16:12:36;98649.25;;;11.74;41.34
83762;BME280;73752;49.594;8.734;2024-03-08T16:15:37;98649.91;;;11.64;41.47